Time;durP1;ratioP1;P1;durP2;ratioP2;P2;SDS_P1;SDS_P2;PMS_P1;PMS_P2;Temp;Humidity;BMP_temperature;BMP_pressure;BME280_temperature;BME280_humidity;BME280_pressure;Samples;Min_cycle;Max_cycle;Signal;HPM_P1;HPM_P2
2023/07/03 00:02:00;;;;;;;;;;;17.10;98.30;;;;;;5026893;28;21270;-44
2023/07/03 00:04:27;;;;;;;;;;;17.00;98.40;;;;;;5023581;28;19935;-44
2023/07/03 00:06:54;;;;;;;;;;;17.00;98.00;;;;;;5022499;28;20401;-44
2023/07/03 00:09:21;;;;;;;;;;;17.00;98.00;;;;;;5019428;28;19929;-44
2023/07/03 00:11:47;;;;;;;;;;;17.00;98.10;;;;;;5026686;28;19925;-44
2023/07/03 00:14:14;;;;;;;;;;;17.00;98.90;;;;;;5031818;28;19968;-44
2023/07/03 00:16:42;;;;;;;;;;;17.00;99.00;;;;;;5012822;28;19928;-44
2023/07/03 00:19:09;;;;;;;;;;;16.90;99.10;;;;;;5029392;28;19925;-44
2023/07/03 00:21:43;;;;;;;;;;;16.90;99.90;;;;;;5032202;28;19960;-44
2023/07/03 00:24:10;;;;;;;;;;;16.90;99.50;;;;;;5032024;28;20387;-43
2023/07/03 00:26:37;;;;;;;;;;;16.90;99.70;;;;;;5031344;28;20241;-43
2023/07/03 00:29:04;;;;;;;;;;;16.80;99.70;;;;;;5013697;28;19971;-43
2023/07/03 00:31:30;;;;;;;;;;;16.80;99.90;;;;;;5031661;28;19983;-43
2023/07/03 00:33:58;;;;;;;;;;;16.80;99.90;;;;;;5029139;28;19936;-44
2023/07/03 00:36:25;;;;;;;;;;;16.80;99.90;;;;;;5019379;28;19944;-42
2023/07/03 00:38:57;;;;;;;;;;;16.80;99.90;;;;;;5031690;28;19936;-43
2023/07/03 00:41:23;;;;;;;;;;;16.80;99.90;;;;;;5031219;28;20281;-43
2023/07/03 00:43:50;;;;;;;;;;;16.70;99.90;;;;;;5030819;28;19976;-43
2023/07/03 00:46:17;;;;;;;;;;;16.70;99.90;;;;;;5031599;28;19933;-43
2023/07/03 00:48:44;;;;;;;;;;;16.70;99.90;;;;;;5028081;28;20304;-43
2023/07/03 00:51:12;;;;;;;;;;;16.70;99.90;;;;;;5030503;28;19929;-42
2023/07/03 00:53:38;;;;;;;;;;;16.70;99.90;;;;;;5031042;28;19925;-43
2023/07/03 00:56:05;;;;;;;;;;;16.70;99.90;;;;;;5030845;28;20088;-43
2023/07/03 00:58:32;;;;;;;;;;;16.60;99.90;;;;;;5031037;28;20344;-44
2023/07/03 01:00:59;;;;;;;;;;;16.60;99.90;;;;;;5031648;28;19964;-44
2023/07/03 01:03:32;;;;;;;;;;;16.60;99.90;;;;;;5046068;28;19925;-43
2023/07/03 01:05:59;;;;;;;;;;;16.60;99.90;;;;;;5030851;28;19925;-43
2023/07/03 01:08:27;;;;;;;;;;;16.60;99.90;;;;;;5026946;28;19925;-43
2023/07/03 01:10:54;;;;;;;;;;;16.60;99.90;;;;;;5031010;28;19979;-44
2023/07/03 01:13:21;;;;;;;;;;;16.60;99.90;;;;;;5030616;28;19936;-43
2023/07/03 01:15:48;;;;;;;;;;;16.60;99.90;;;;;;5013557;28;20034;-43
2023/07/03 01:18:14;;;;;;;;;;;16.60;99.90;;;;;;5029956;28;20285;-43
2023/07/03 01:20:42;;;;;;;;;;;16.60;99.90;;;;;;5012342;28;19941;-43
2023/07/03 01:23:11;;;;;;;;;;;16.60;99.90;;;;;;5030887;28;19932;-43
2023/07/03 01:25:40;;;;;;;;;;;16.60;99.90;;;;;;5023868;28;19975;-43
2023/07/03 01:28:06;;;;;;;;;;;16.50;99.90;;;;;;5014118;28;19944;-43
2023/07/03 01:30:33;;;;;;;;;;;16.50;99.90;;;;;;5046517;28;19925;-43
2023/07/03 01:33:00;;;;;;;;;;;16.50;99.90;;;;;;5031629;28;19925;-44
2023/07/03 01:35:26;;;;;;;;;;;16.50;99.90;;;;;;5046034;28;20014;-44
2023/07/03 01:37:53;;;;;;;;;;;16.50;99.90;;;;;;5022349;28;19933;-44
2023/07/03 01:40:21;;;;;;;;;;;16.50;99.90;;;;;;5018020;28;19976;-44
2023/07/03 01:42:49;;;;;;;;;;;16.50;99.90;;;;;;5024933;28;19929;-44
2023/07/03 01:45:15;;;;;;;;;;;16.50;99.90;;;;;;5034687;28;20381;-44
2023/07/03 01:47:42;;;;;;;;;;;16.60;99.90;;;;;;5032490;28;20312;-43
2023/07/03 01:50:10;;;;;;;;;;;16.50;99.90;;;;;;5020647;28;19929;-43
2023/07/03 01:52:38;;;;;;;;;;;16.60;99.90;;;;;;5034211;28;19925;-43
2023/07/03 01:55:05;;;;;;;;;;;16.60;99.90;;;;;;5034466;28;19979;-43
2023/07/03 01:57:34;;;;;;;;;;;16.60;99.90;;;;;;5034927;28;20023;-43
2023/07/03 02:00:03;;;;;;;;;;;16.60;99.90;;;;;;5033103;28;19968;-44
2023/07/03 02:02:30;;;;;;;;;;;16.50;99.90;;;;;;5033747;28;19932;-44
2023/07/03 02:04:59;;;;;;;;;;;16.50;99.90;;;;;;5034096;28;19983;-45
2023/07/03 02:07:26;;;;;;;;;;;16.60;99.90;;;;;;5016830;28;19932;-44
2023/07/03 02:09:53;;;;;;;;;;;16.60;99.90;;;;;;5033159;28;19925;-44
2023/07/03 02:12:20;;;;;;;;;;;16.60;99.90;;;;;;5034516;28;19929;-44
2023/07/03 02:14:46;;;;;;;;;;;16.50;99.90;;;;;;5034916;28;19932;-44
2023/07/03 02:17:14;;;;;;;;;;;16.50;99.90;;;;;;5034803;28;19925;-44
2023/07/03 02:19:41;;;;;;;;;;;16.50;99.90;;;;;;5034192;28;20401;-44
2023/07/03 02:22:08;;;;;;;;;;;16.50;99.90;;;;;;5033749;28;19925;-44
2023/07/03 02:24:35;;;;;;;;;;;16.50;99.90;;;;;;5034022;28;19972;-43
2023/07/03 02:27:01;;;;;;;;;;;16.50;99.90;;;;;;5034347;28;19932;-44
2023/07/03 02:29:28;;;;;;;;;;;16.60;99.90;;;;;;5015679;28;19929;-44
2023/07/03 02:31:54;;;;;;;;;;;16.60;99.90;;;;;;5032282;28;19933;-44
2023/07/03 02:34:23;;;;;;;;;;;16.50;99.90;;;;;;5033638;28;19929;-43
2023/07/03 02:36:49;;;;;;;;;;;16.60;99.90;;;;;;5016553;28;20119;-45
2023/07/03 02:39:16;;;;;;;;;;;16.60;99.90;;;;;;5033759;28;20348;-44
2023/07/03 02:41:43;;;;;;;;;;;16.60;99.90;;;;;;5034409;28;19925;-44
2023/07/03 02:44:09;;;;;;;;;;;16.60;99.90;;;;;;5031953;28;19925;-45
2023/07/03 02:46:36;;;;;;;;;;;16.60;99.90;;;;;;5033285;28;19929;-44
2023/07/03 02:49:03;;;;;;;;;;;16.50;99.90;;;;;;5020938;28;20348;-44
2023/07/03 02:51:31;;;;;;;;;;;16.50;99.90;;;;;;5036265;28;19925;-44
2023/07/03 02:53:58;;;;;;;;;;;16.60;99.90;;;;;;5031418;28;20027;-44
2023/07/03 02:56:24;;;;;;;;;;;16.50;99.90;;;;;;5034208;28;19952;-44
2023/07/03 02:58:51;;;;;;;;;;;16.50;99.90;;;;;;5014402;28;19960;-44
2023/07/03 03:01:18;;;;;;;;;;;16.50;99.90;;;;;;5031537;28;19929;-45
2023/07/03 03:03:45;;;;;;;;;;;16.50;99.90;;;;;;5033503;28;19978;-44
2023/07/03 03:06:12;;;;;;;;;;;16.50;99.90;;;;;;5016111;28;19968;-44
2023/07/03 03:08:40;;;;;;;;;;;16.40;99.90;;;;;;5015586;28;19925;-44
2023/07/03 03:11:07;;;;;;;;;;;16.40;99.90;;;;;;5031991;28;20538;-44
2023/07/03 03:13:34;;;;;;;;;;;16.40;99.90;;;;;;5031744;28;19929;-44
2023/07/03 03:16:01;;;;;;;;;;;16.40;99.90;;;;;;5032472;28;20395;-43
2023/07/03 03:18:27;;;;;;;;;;;16.30;99.90;;;;;;5033258;28;19948;-44
2023/07/03 03:20:54;;;;;;;;;;;16.30;99.90;;;;;;5014834;28;19968;-44
2023/07/03 03:23:21;;;;;;;;;;;16.30;99.90;;;;;;5032145;28;20289;-44
2023/07/03 03:25:49;;;;;;;;;;;16.20;99.90;;;;;;5031567;28;19994;-43
2023/07/03 03:28:16;;;;;;;;;;;16.20;99.90;;;;;;5032481;28;19977;-45
2023/07/03 03:30:43;;;;;;;;;;;16.20;99.90;;;;;;5032177;28;19929;-44
2023/07/03 03:33:09;;;;;;;;;;;16.10;99.90;;;;;;5014767;28;20008;-45
2023/07/03 03:35:36;;;;;;;;;;;16.10;99.90;;;;;;5032602;28;19929;-44
2023/07/03 03:38:03;;;;;;;;;;;16.00;99.90;;;;;;5031626;28;19995;-44
2023/07/03 03:40:29;;;;;;;;;;;16.00;99.90;;;;;;5030811;28;20442;-44
2023/07/03 03:43:00;;;;;;;;;;;15.90;99.90;;;;;;5031761;28;19925;-44
2023/07/03 03:45:27;;;;;;;;;;;15.80;99.90;;;;;;5047910;28;19924;-43
2023/07/03 03:47:54;;;;;;;;;;;15.80;99.90;;;;;;5029229;28;20316;-43
2023/07/03 03:50:20;;;;;;;;;;;15.80;99.90;;;;;;5043281;28;19925;-44
2023/07/03 03:52:47;;;;;;;;;;;15.70;99.90;;;;;;5022755;28;19933;-44
2023/07/03 03:55:14;;;;;;;;;;;15.70;99.90;;;;;;5017814;28;20324;-44
2023/07/03 03:57:40;;;;;;;;;;;15.70;99.90;;;;;;4999828;28;19976;-43
2023/07/03 04:00:15;;;;;;;;;;;15.60;99.90;;;;;;5029440;28;19986;-43
2023/07/03 04:02:42;;;;;;;;;;;15.60;99.90;;;;;;5016082;28;20685;-42
2023/07/03 04:05:09;;;;;;;;;;;15.60;99.90;;;;;;5030536;28;19991;-43
2023/07/03 04:07:35;;;;;;;;;;;15.50;99.90;;;;;;5030927;28;20446;-43
2023/07/03 04:10:03;;;;;;;;;;;15.50;99.90;;;;;;5031969;28;19925;-43
2023/07/03 04:12:30;;;;;;;;;;;15.50;99.90;;;;;;5032446;28;19925;-44
2023/07/03 04:14:56;;;;;;;;;;;15.50;99.90;;;;;;5012174;28;20270;-43
2023/07/03 04:17:25;;;;;;;;;;;15.40;99.90;;;;;;5021769;28;19926;-43
2023/07/03 04:19:51;;;;;;;;;;;15.50;99.90;;;;;;5029062;28;20348;-44
2023/07/03 04:22:18;;;;;;;;;;;15.40;99.90;;;;;;5025319;28;19991;-46
2023/07/03 04:24:44;;;;;;;;;;;15.40;99.90;;;;;;5029454;28;20352;-44
2023/07/03 04:27:11;;;;;;;;;;;15.40;99.90;;;;;;5030637;28;19929;-43
2023/07/03 04:29:38;;;;;;;;;;;15.40;99.90;;;;;;5047808;28;20028;-44
2023/07/03 04:32:05;;;;;;;;;;;15.30;99.90;;;;;;5027526;28;19926;-44
2023/07/03 04:34:33;;;;;;;;;;;15.30;99.90;;;;;;5025615;28;19925;-44
2023/07/03 04:37:00;;;;;;;;;;;15.30;99.90;;;;;;5031009;28;19933;-43
2023/07/03 04:39:26;;;;;;;;;;;15.30;99.90;;;;;;5031622;28;19929;-44
2023/07/03 04:41:53;;;;;;;;;;;15.30;99.90;;;;;;5013119;28;19940;-44
2023/07/03 04:44:21;;;;;;;;;;;15.30;99.90;;;;;;5014787;28;19929;-43
2023/07/03 04:46:48;;;;;;;;;;;15.30;99.90;;;;;;5010083;28;19926;-43
2023/07/03 04:49:15;;;;;;;;;;;15.30;99.90;;;;;;5024541;28;19983;-45
2023/07/03 04:51:43;;;;;;;;;;;15.40;99.90;;;;;;5010861;28;20322;-43
2023/07/03 04:54:10;;;;;;;;;;;15.40;99.90;;;;;;5030350;28;20289;-43
2023/07/03 04:56:36;;;;;;;;;;;15.40;99.90;;;;;;5030955;28;19979;-43
2023/07/03 04:59:03;;;;;;;;;;;15.40;99.90;;;;;;5031403;28;19956;-43
2023/07/03 05:01:30;;;;;;;;;;;15.50;99.90;;;;;;5011805;28;20389;-43
2023/07/03 05:03:57;;;;;;;;;;;15.50;99.90;;;;;;5032058;28;19929;-43
2023/07/03 05:06:24;;;;;;;;;;;15.50;99.90;;;;;;5023795;28;19980;-42
2023/07/03 05:08:52;;;;;;;;;;;15.60;99.90;;;;;;5022110;28;20372;-43
2023/07/03 05:11:19;;;;;;;;;;;15.70;99.90;;;;;;5024102;28;19932;-43
2023/07/03 05:13:46;;;;;;;;;;;15.70;99.90;;;;;;5031058;28;19925;-43
2023/07/03 05:16:14;;;;;;;;;;;15.70;99.90;;;;;;5030647;28;19932;-43
2023/07/03 05:18:40;;;;;;;;;;;15.70;99.90;;;;;;5013633;28;19934;-44
2023/07/03 05:21:07;;;;;;;;;;;15.70;99.90;;;;;;5031003;28;19971;-43
2023/07/03 05:23:34;;;;;;;;;;;15.70;99.90;;;;;;5012423;28;19932;-44
2023/07/03 05:26:02;;;;;;;;;;;15.70;99.90;;;;;;5030352;28;19948;-43
2023/07/03 05:28:29;;;;;;;;;;;15.80;99.90;;;;;;5031781;28;19925;-43
2023/07/03 05:30:56;;;;;;;;;;;15.80;99.90;;;;;;5032161;28;19928;-44
2023/07/03 05:33:22;;;;;;;;;;;15.90;99.90;;;;;;5030759;28;19925;-44
2023/07/03 05:35:49;;;;;;;;;;;16.00;99.90;;;;;;5012299;28;19929;-43
2023/07/03 05:38:16;;;;;;;;;;;16.10;99.90;;;;;;5028239;28;20066;-43
2023/07/03 05:40:43;;;;;;;;;;;16.10;99.90;;;;;;5029749;28;19979;-43
2023/07/03 05:43:11;;;;;;;;;;;16.30;99.90;;;;;;5011070;28;20377;-43
2023/07/03 05:45:38;;;;;;;;;;;16.30;99.90;;;;;;5029555;28;19952;-43
2023/07/03 05:48:05;;;;;;;;;;;16.40;99.90;;;;;;5028586;28;19925;-42
2023/07/03 05:50:31;;;;;;;;;;;16.50;99.90;;;;;;5028542;28;19925;-43
2023/07/03 05:52:58;;;;;;;;;;;16.60;99.90;;;;;;5030703;28;19986;-44
2023/07/03 05:55:25;;;;;;;;;;;16.70;99.90;;;;;;5029376;28;20296;-43
2023/07/03 05:57:51;;;;;;;;;;;16.80;99.90;;;;;;5028740;28;19967;-44
2023/07/03 06:00:21;;;;;;;;;;;16.90;99.90;;;;;;5029868;28;19925;-43
2023/07/03 06:02:47;;;;;;;;;;;17.00;99.90;;;;;;5027481;28;19925;-43
2023/07/03 06:05:14;;;;;;;;;;;17.10;99.90;;;;;;5029310;28;19926;-43
2023/07/03 06:07:41;;;;;;;;;;;17.20;99.90;;;;;;5027639;28;19933;-43
2023/07/03 06:10:08;;;;;;;;;;;17.30;99.90;;;;;;5025989;28;19925;-43
2023/07/03 06:12:35;;;;;;;;;;;17.40;99.90;;;;;;5022969;28;19945;-44
2023/07/03 06:15:02;;;;;;;;;;;17.50;99.90;;;;;;5022930;28;19929;-43
2023/07/03 06:17:30;;;;;;;;;;;17.60;99.90;;;;;;5028222;28;19929;-44
2023/07/03 06:19:56;;;;;;;;;;;17.70;99.90;;;;;;5030727;28;20388;-42
2023/07/03 06:22:23;;;;;;;;;;;17.80;99.90;;;;;;5032511;28;19933;-43
2023/07/03 06:24:50;;;;;;;;;;;17.90;99.90;;;;;;5024869;28;19933;-43
2023/07/03 06:27:16;;;;;;;;;;;18.00;99.90;;;;;;5029722;28;20451;-43
2023/07/03 06:29:44;;;;;;;;;;;18.00;99.90;;;;;;5032020;28;19929;-44
2023/07/03 06:32:11;;;;;;;;;;;18.20;99.90;;;;;;5010734;28;20361;-44
2023/07/03 06:34:39;;;;;;;;;;;18.30;99.90;;;;;;5046060;28;19939;-42
2023/07/03 06:37:06;;;;;;;;;;;18.40;99.90;;;;;;5029530;28;20388;-44
2023/07/03 06:39:33;;;;;;;;;;;18.50;99.90;;;;;;5032110;28;19945;-43
2023/07/03 06:41:59;;;;;;;;;;;18.60;99.30;;;;;;5032496;28;19925;-43
2023/07/03 06:44:26;;;;;;;;;;;18.50;99.40;;;;;;5027751;28;19972;-44
2023/07/03 06:46:53;;;;;;;;;;;18.50;99.40;;;;;;5029126;28;19925;-42
2023/07/03 06:49:20;;;;;;;;;;;18.50;99.70;;;;;;5031114;28;19965;-43
2023/07/03 06:51:48;;;;;;;;;;;18.60;99.80;;;;;;5028616;28;19939;-43
2023/07/03 06:54:15;;;;;;;;;;;18.70;99.90;;;;;;5030287;28;19925;-43
2023/07/03 06:56:41;;;;;;;;;;;18.80;99.90;;;;;;5032213;28;19983;-43
2023/07/03 06:59:08;;;;;;;;;;;19.10;99.30;;;;;;5030635;28;19925;-43
2023/07/03 07:01:35;;;;;;;;;;;19.20;99.10;;;;;;5024194;28;20033;-43
2023/07/03 07:04:01;;;;;;;;;;;19.40;98.70;;;;;;5012274;28;19925;-44
2023/07/03 07:06:29;;;;;;;;;;;19.50;97.50;;;;;;5029780;28;20343;-43
2023/07/03 07:08:57;;;;;;;;;;;19.60;98.00;;;;;;5029635;28;19926;-43
2023/07/03 07:11:24;;;;;;;;;;;19.60;97.10;;;;;;5036754;28;20468;-42
2023/07/03 07:13:51;;;;;;;;;;;19.60;97.40;;;;;;5010075;28;19925;-44
2023/07/03 07:16:18;;;;;;;;;;;19.70;96.30;;;;;;5012779;28;19925;-43
2023/07/03 07:18:46;;;;;;;;;;;19.70;96.20;;;;;;5031277;28;19932;-43
2023/07/03 07:21:12;;;;;;;;;;;19.80;96.40;;;;;;5047085;28;19926;-43
2023/07/03 07:23:39;;;;;;;;;;;19.90;96.40;;;;;;5026200;28;19968;-44
2023/07/03 07:26:07;;;;;;;;;;;20.00;96.50;;;;;;5026387;28;19925;-43
2023/07/03 07:28:34;;;;;;;;;;;20.20;96.30;;;;;;5027958;28;19933;-43
2023/07/03 07:31:00;;;;;;;;;;;20.30;95.40;;;;;;5044151;28;19925;-43
2023/07/03 07:33:27;;;;;;;;;;;20.30;93.80;;;;;;5028745;28;19929;-44
2023/07/03 07:35:54;;;;;;;;;;;20.30;94.50;;;;;;5030905;28;19940;-43
2023/07/03 07:38:21;;;;;;;;;;;20.40;94.50;;;;;;5019308;28;19929;-43
2023/07/03 07:40:48;;;;;;;;;;;20.50;93.80;;;;;;5030172;28;19975;-43
2023/07/03 07:43:16;;;;;;;;;;;20.50;94.70;;;;;;5025967;28;19952;-44
2023/07/03 07:45:43;;;;;;;;;;;20.60;94.40;;;;;;5006168;28;19968;-44
2023/07/03 07:48:11;;;;;;;;;;;20.50;94.60;;;;;;5029783;28;20424;-43
2023/07/03 07:50:38;;;;;;;;;;;20.50;94.20;;;;;;5027927;28;19929;-44
2023/07/03 07:53:05;;;;;;;;;;;20.30;93.80;;;;;;5044617;28;19929;-43
2023/07/03 07:55:31;;;;;;;;;;;20.20;94.50;;;;;;5030255;28;19925;-44
2023/07/03 07:57:58;;;;;;;;;;;20.20;93.50;;;;;;5045078;28;20292;-44
2023/07/03 08:00:26;;;;;;;;;;;20.20;93.80;;;;;;5029304;28;19936;-43
2023/07/03 08:02:53;;;;;;;;;;;20.10;94.10;;;;;;5018250;28;19930;-44
2023/07/03 08:05:19;;;;;;;;;;;20.10;93.90;;;;;;5030332;28;19933;-44
2023/07/03 08:07:46;;;;;;;;;;;20.20;93.70;;;;;;5044692;28;19929;-43
2023/07/03 08:10:13;;;;;;;;;;;20.40;93.50;;;;;;5030352;28;19952;-44
2023/07/03 08:12:40;;;;;;;;;;;20.60;93.00;;;;;;5013314;28;19925;-44
2023/07/03 08:15:07;;;;;;;;;;;20.80;92.50;;;;;;5014833;28;19933;-44
2023/07/03 08:17:35;;;;;;;;;;;20.90;92.70;;;;;;5011622;28;20337;-43
2023/07/03 08:20:02;;;;;;;;;;;21.10;92.80;;;;;;5028101;28;19925;-44
2023/07/03 08:22:29;;;;;;;;;;;21.30;91.00;;;;;;5030650;28;19925;-43
2023/07/03 08:24:55;;;;;;;;;;;21.20;90.80;;;;;;5030559;28;20141;-44
2023/07/03 08:27:22;;;;;;;;;;;21.20;89.40;;;;;;5014673;28;19978;-43
2023/07/03 08:29:49;;;;;;;;;;;21.10;90.00;;;;;;5030958;28;20348;-43
2023/07/03 08:32:15;;;;;;;;;;;20.90;88.50;;;;;;5030002;28;19932;-43
2023/07/03 08:34:43;;;;;;;;;;;20.70;89.60;;;;;;5030380;28;19929;-44
2023/07/03 08:37:10;;;;;;;;;;;20.60;90.00;;;;;;5030505;28;20030;-43
2023/07/03 08:39:40;;;;;;;;;;;20.50;91.00;;;;;;5010494;28;22146;-44
2023/07/03 08:42:10;;;;;;;;;;;20.50;91.10;;;;;;5009659;28;19932;-43
2023/07/03 08:44:36;;;;;;;;;;;20.40;91.40;;;;;;5045919;28;20460;-44
2023/07/03 08:47:04;;;;;;;;;;;20.40;91.40;;;;;;5028615;28;19995;-43
2023/07/03 08:49:31;;;;;;;;;;;20.30;91.40;;;;;;5028074;28;19925;-44
2023/07/03 08:51:59;;;;;;;;;;;20.20;91.50;;;;;;5029406;28;19925;-43
2023/07/03 08:54:27;;;;;;;;;;;20.10;92.00;;;;;;5029083;28;19925;-44
2023/07/03 08:56:53;;;;;;;;;;;20.00;91.50;;;;;;5028936;28;19979;-44
2023/07/03 08:59:20;;;;;;;;;;;19.90;92.20;;;;;;5030896;28;19925;-43
2023/07/03 09:01:47;;;;;;;;;;;19.70;92.10;;;;;;5030334;28;19997;-43
2023/07/03 09:04:19;;;;;;;;;;;19.50;93.00;;;;;;5028260;28;19929;-43
2023/07/03 09:06:48;;;;;;;;;;;19.40;93.20;;;;;;5011847;28;19933;-43
2023/07/03 09:09:18;;;;;;;;;;;19.40;93.90;;;;;;5026007;28;19933;-43
2023/07/03 09:11:45;;;;;;;;;;;19.40;94.30;;;;;;5011641;28;19929;-44
2023/07/03 09:14:12;;;;;;;;;;;19.50;94.70;;;;;;4995996;28;19933;-44
2023/07/03 09:16:41;;;;;;;;;;;19.60;94.80;;;;;;5030743;28;19925;-43
2023/07/03 09:19:09;;;;;;;;;;;19.60;94.80;;;;;;5030147;28;20016;-43
2023/07/03 09:21:35;;;;;;;;;;;19.60;94.90;;;;;;5027754;28;19975;-43
2023/07/03 09:24:04;;;;;;;;;;;19.60;95.00;;;;;;5011204;28;19925;-44
2023/07/03 09:26:34;;;;;;;;;;;19.50;94.90;;;;;;5029581;28;19929;-43
2023/07/03 09:29:00;;;;;;;;;;;19.50;95.10;;;;;;5013255;28;19925;-43
2023/07/03 09:31:27;;;;;;;;;;;19.50;94.80;;;;;;5029956;28;20399;-44
2023/07/03 09:33:54;;;;;;;;;;;19.60;94.50;;;;;;5029862;28;19932;-43
2023/07/03 09:36:23;;;;;;;;;;;19.70;93.80;;;;;;5030437;28;19925;-43
2023/07/03 09:38:50;;;;;;;;;;;19.70;93.80;;;;;;5030414;28;19925;-43
2023/07/03 09:41:23;;;;;;;;;;;19.80;93.20;;;;;;5028325;28;20319;-43
2023/07/03 09:43:51;;;;;;;;;;;19.80;93.50;;;;;;5029529;28;19925;-43
2023/07/03 09:46:19;;;;;;;;;;;19.70;93.00;;;;;;5029938;28;20277;-43
2023/07/03 09:48:46;;;;;;;;;;;19.70;93.50;;;;;;5029947;28;19929;-43
2023/07/03 09:51:23;;;;;;;;;;;19.60;93.50;;;;;;5029603;28;19929;-43
2023/07/03 09:53:50;;;;;;;;;;;19.80;92.60;;;;;;5029747;28;19932;-43
2023/07/03 09:56:17;;;;;;;;;;;20.10;92.30;;;;;;5031303;28;19944;-43
2023/07/03 09:58:45;;;;;;;;;;;20.50;92.50;;;;;;5029156;28;19925;-43
2023/07/03 10:01:16;;;;;;;;;;;20.90;92.20;;;;;;5030968;28;20246;-44
2023/07/03 10:03:42;;;;;;;;;;;21.30;91.30;;;;;;5032753;28;19925;-43
2023/07/03 10:06:12;;;;;;;;;;;21.60;90.00;;;;;;5033384;28;19929;-45
2023/07/03 10:08:40;;;;;;;;;;;21.60;87.80;;;;;;5033476;28;19926;-44
2023/07/03 10:11:06;;;;;;;;;;;21.60;88.20;;;;;;5015687;28;19925;-44
2023/07/03 10:13:34;;;;;;;;;;;21.60;89.60;;;;;;5048789;28;19929;-42
2023/07/03 10:16:00;;;;;;;;;;;21.60;89.60;;;;;;5032350;28;19931;-42
2023/07/03 10:18:30;;;;;;;;;;;21.60;88.90;;;;;;5016016;28;19929;-44
2023/07/03 10:20:57;;;;;;;;;;;21.50;87.50;;;;;;5033140;28;19929;-43
2023/07/03 10:23:24;;;;;;;;;;;21.40;87.10;;;;;;5030829;28;19925;-42
2023/07/03 10:25:53;;;;;;;;;;;21.40;87.20;;;;;;5033211;28;20373;-43
2023/07/03 10:28:21;;;;;;;;;;;21.40;87.40;;;;;;5015846;28;20450;-44
2023/07/03 10:30:49;;;;;;;;;;;21.40;88.70;;;;;;5013787;28;20389;-43
2023/07/03 10:33:18;;;;;;;;;;;21.60;89.70;;;;;;5029926;28;19925;-43
2023/07/03 10:35:47;;;;;;;;;;;21.80;87.00;;;;;;5033014;28;19926;-43
2023/07/03 10:38:15;;;;;;;;;;;21.70;84.40;;;;;;5031538;28;20295;-44
2023/07/03 10:40:43;;;;;;;;;;;21.60;86.60;;;;;;5030886;28;20004;-43
2023/07/03 10:43:10;;;;;;;;;;;21.50;86.60;;;;;;5013278;28;19929;-44
2023/07/03 10:45:37;;;;;;;;;;;21.60;82.40;;;;;;5029413;28;19952;-41
2023/07/03 10:48:05;;;;;;;;;;;21.60;84.30;;;;;;5018179;28;19925;-44
2023/07/03 10:50:33;;;;;;;;;;;21.70;84.80;;;;;;5033357;28;19925;-43
2023/07/03 10:53:04;;;;;;;;;;;21.80;85.50;;;;;;5032676;28;19932;-43
2023/07/03 10:55:32;;;;;;;;;;;22.00;85.60;;;;;;5016355;28;19966;-42
2023/07/03 10:58:01;;;;;;;;;;;22.30;83.90;;;;;;5016814;28;19925;-43
2023/07/03 11:00:29;;;;;;;;;;;22.30;81.70;;;;;;5016274;28;19925;-44
2023/07/03 11:02:59;;;;;;;;;;;22.20;81.30;;;;;;5047787;28;19929;-44
2023/07/03 11:05:27;;;;;;;;;;;22.10;80.60;;;;;;5048003;28;19925;-43
2023/07/03 11:07:56;;;;;;;;;;;21.90;81.90;;;;;;5015734;28;19979;-44
2023/07/03 11:10:24;;;;;;;;;;;21.90;83.00;;;;;;5018372;28;20008;-43
2023/07/03 11:12:52;;;;;;;;;;;21.70;82.10;;;;;;5033765;28;19925;-44
2023/07/03 11:15:23;;;;;;;;;;;21.60;81.80;;;;;;5016107;28;19984;-44
2023/07/03 11:17:52;;;;;;;;;;;21.40;82.00;;;;;;5034154;28;20266;-43
2023/07/03 11:20:20;;;;;;;;;;;21.10;82.00;;;;;;5032860;28;19979;-43
2023/07/03 11:22:49;;;;;;;;;;;21.00;82.80;;;;;;5032744;28;19933;-43
2023/07/03 11:25:17;;;;;;;;;;;20.80;84.10;;;;;;5033025;28;19929;-44
2023/07/03 11:27:56;;;;;;;;;;;20.80;85.60;;;;;;5033458;28;19925;-43
2023/07/03 11:30:25;;;;;;;;;;;20.70;85.70;;;;;;5032010;28;20435;-44
2023/07/03 11:32:52;;;;;;;;;;;20.80;86.40;;;;;;5033807;28;19925;-44
2023/07/03 11:35:19;;;;;;;;;;;21.00;85.90;;;;;;5033519;28;19976;-44
2023/07/03 11:37:46;;;;;;;;;;;21.10;86.00;;;;;;5032152;28;20360;-43
2023/07/03 11:40:33;;;;;;;;;;;21.40;84.60;;;;;;5011264;28;19933;-43
2023/07/03 11:43:18;;;;;;;;;;;21.70;85.10;;;;;;5045817;28;20381;-44
2023/07/03 11:45:50;;;;;;;;;;;22.00;83.70;;;;;;5013164;28;20409;-43
2023/07/03 11:48:20;;;;;;;;;;;22.20;83.90;;;;;;5019991;28;19935;-43
2023/07/03 11:50:47;;;;;;;;;;;22.40;83.00;;;;;;5014457;28;19929;-43
2023/07/03 11:53:24;;;;;;;;;;;22.30;82.80;;;;;;5032281;28;19925;-43
2023/07/03 11:55:50;;;;;;;;;;;22.30;82.70;;;;;;5014820;28;19972;-43
2023/07/03 11:58:17;;;;;;;;;;;22.30;82.30;;;;;;5033073;28;19932;-44
2023/07/03 12:00:44;;;;;;;;;;;22.40;81.80;;;;;;5030848;28;19932;-44
2023/07/03 12:03:14;;;;;;;;;;;22.30;81.80;;;;;;5032584;28;19976;-44
2023/07/03 12:05:53;;;;;;;;;;;22.30;81.40;;;;;;5014790;28;19928;-43
2023/07/03 12:08:39;;;;;;;;;;;22.20;81.70;;;;;;5032757;28;19925;-44
2023/07/03 12:11:06;;;;;;;;;;;22.20;81.10;;;;;;5046507;28;20346;-43
2023/07/03 12:13:36;;;;;;;;;;;22.20;80.70;;;;;;5031957;28;19972;-43
2023/07/03 12:16:04;;;;;;;;;;;22.10;81.40;;;;;;5045738;28;20004;-43
2023/07/03 12:18:32;;;;;;;;;;;22.30;82.60;;;;;;5047909;28;19925;-44
2023/07/03 12:20:59;;;;;;;;;;;22.60;80.60;;;;;;5032307;28;19976;-43
2023/07/03 12:23:32;;;;;;;;;;;23.00;79.20;;;;;;5032680;28;19925;-43
2023/07/03 12:26:00;;;;;;;;;;;23.30;78.00;;;;;;5013280;28;19969;-44
2023/07/03 12:28:27;;;;;;;;;;;23.40;77.90;;;;;;5031822;28;19929;-44
2023/07/03 12:30:53;;;;;;;;;;;23.30;76.80;;;;;;5032382;28;19925;-45
2023/07/03 12:33:20;;;;;;;;;;;23.10;75.80;;;;;;5033640;28;20423;-45
2023/07/03 12:35:48;;;;;;;;;;;22.90;77.70;;;;;;5013713;28;20274;-44
2023/07/03 12:38:15;;;;;;;;;;;22.80;76.40;;;;;;5030613;28;19932;-46
2023/07/03 12:40:42;;;;;;;;;;;22.60;76.80;;;;;;5001748;28;19968;-44
2023/07/03 12:43:08;;;;;;;;;;;22.50;77.20;;;;;;5019072;28;19979;-44
2023/07/03 12:45:35;;;;;;;;;;;22.20;78.30;;;;;;5016902;28;19925;-44
2023/07/03 12:48:02;;;;;;;;;;;22.00;76.00;;;;;;5008798;28;19926;-45
2023/07/03 12:50:28;;;;;;;;;;;21.80;75.50;;;;;;5028788;28;19928;-45
2023/07/03 12:52:57;;;;;;;;;;;21.60;76.20;;;;;;4996177;28;19972;-44
2023/07/03 12:55:24;;;;;;;;;;;21.40;76.40;;;;;;5003623;28;19964;-43
2023/07/03 12:57:52;;;;;;;;;;;21.20;77.80;;;;;;5030828;28;19925;-44
2023/07/03 13:00:31;;;;;;;;;;;21.20;77.80;;;;;;5028121;28;20296;-44
2023/07/03 13:02:57;;;;;;;;;;;21.30;78.20;;;;;;5031826;28;19971;-44
2023/07/03 13:05:24;;;;;;;;;;;21.60;78.10;;;;;;5030255;28;20030;-43
2023/07/03 13:07:51;;;;;;;;;;;22.00;79.20;;;;;;5014530;28;20405;-44
2023/07/03 13:10:19;;;;;;;;;;;22.30;78.20;;;;;;5013636;28;19925;-43
2023/07/03 13:12:45;;;;;;;;;;;22.60;77.00;;;;;;5032008;28;19925;-44
2023/07/03 13:15:12;;;;;;;;;;;22.80;75.30;;;;;;5011718;28;19925;-43
2023/07/03 13:17:39;;;;;;;;;;;22.90;76.70;;;;;;5010863;28;20408;-44
2023/07/03 13:20:16;;;;;;;;;;;23.00;77.50;;;;;;5031086;28;19933;-44
2023/07/03 13:22:45;;;;;;;;;;;23.10;78.00;;;;;;5030271;28;19972;-44
2023/07/03 13:25:12;;;;;;;;;;;23.30;77.40;;;;;;5013619;28;20384;-44
2023/07/03 13:27:39;;;;;;;;;;;23.30;76.20;;;;;;5030073;28;19932;-44
2023/07/03 13:30:15;;;;;;;;;;;23.20;75.50;;;;;;5032638;28;19967;-44
2023/07/03 13:32:51;;;;;;;;;;;23.00;73.40;;;;;;5009957;28;19929;-44
2023/07/03 13:35:17;;;;;;;;;;;22.80;74.20;;;;;;5005285;28;19929;-44
2023/07/03 13:37:44;;;;;;;;;;;22.50;74.10;;;;;;5015841;28;19965;-43
2023/07/03 13:40:11;;;;;;;;;;;22.40;76.40;;;;;;5018206;28;19972;-43
2023/07/03 13:42:39;;;;;;;;;;;22.20;76.80;;;;;;5044118;28;19928;-44
2023/07/03 13:45:08;;;;;;;;;;;22.20;77.90;;;;;;5041355;28;19925;-44
2023/07/03 13:47:34;;;;;;;;;;;22.00;76.60;;;;;;5033108;28;19979;-44
2023/07/03 13:50:01;;;;;;;;;;;21.90;76.00;;;;;;5013319;28;19933;-43
2023/07/03 13:52:28;;;;;;;;;;;21.70;75.30;;;;;;5035080;28;20404;-44
2023/07/03 13:54:54;;;;;;;;;;;21.50;76.50;;;;;;5016922;28;20336;-43
2023/07/03 13:57:21;;;;;;;;;;;21.30;77.30;;;;;;5033226;28;19987;-44
2023/07/03 13:59:49;;;;;;;;;;;21.20;79.00;;;;;;5015189;28;19955;-43
2023/07/03 14:02:16;;;;;;;;;;;21.00;79.30;;;;;;5032623;28;19925;-44
2023/07/03 14:04:43;;;;;;;;;;;20.70;80.10;;;;;;5015997;28;19925;-44
2023/07/03 14:07:10;;;;;;;;;;;20.50;80.80;;;;;;5013795;28;19925;-43
2023/07/03 14:09:37;;;;;;;;;;;20.20;81.20;;;;;;5015505;28;19929;-42
2023/07/03 14:12:04;;;;;;;;;;;20.10;82.60;;;;;;5034214;28;19932;-43
2023/07/03 14:14:30;;;;;;;;;;;20.00;82.70;;;;;;5033309;28;19924;-43
2023/07/03 14:16:58;;;;;;;;;;;20.00;82.30;;;;;;5015189;28;20220;-43
2023/07/03 14:19:25;;;;;;;;;;;19.90;82.70;;;;;;5033987;28;20365;-42